createdAt,value
2018-06-05T00:01:46.009Z,98546.94
2018-06-05T00:04:16.653Z,98542.17
2018-06-05T00:06:46.565Z,98548.86
2018-06-05T00:09:16.904Z,98545.95
2018-06-05T00:11:47.149Z,98548.29
2018-06-05T00:14:20.541Z,98548.05
2018-06-05T00:16:50.687Z,98546.21
2018-06-05T00:19:20.790Z,98549.58
2018-06-05T00:21:50.863Z,98545.38
2018-06-05T00:24:21.925Z,98547.95
2018-06-05T00:26:52.033Z,98544.70
2018-06-05T00:29:22.378Z,98542.05
2018-06-05T00:31:52.494Z,98537.95
2018-06-05T00:34:22.635Z,98527.38
2018-06-05T00:36:52.734Z,98529.14
2018-06-05T00:39:22.978Z,98532.27
2018-06-05T00:41:53.055Z,98529.19
2018-06-05T00:44:23.195Z,98526.91
2018-06-05T00:46:53.336Z,98533.76
2018-06-05T00:49:23.518Z,98540.27
2018-06-05T00:52:05.154Z,98536.58
2018-06-05T00:54:35.038Z,98539.37
2018-06-05T00:57:05.142Z,98546.04
2018-06-05T00:59:35.271Z,98541.77
2018-06-05T01:02:05.402Z,98539.91
2018-06-05T01:04:35.728Z,98539.48
2018-06-05T01:07:05.850Z,98541.49
2018-06-05T01:09:35.779Z,98545.90
2018-06-05T01:12:05.871Z,98541.31
2018-06-05T01:14:36.665Z,98546.38
2018-06-05T01:17:06.822Z,98542.09
2018-06-05T01:19:36.983Z,98548.76
2018-06-05T01:22:07.416Z,98551.57
2018-06-05T01:24:37.528Z,98555.67
2018-06-05T01:27:11.709Z,98559.33
2018-06-05T01:29:42.032Z,98564.80
2018-06-05T01:32:12.274Z,98568.17
2018-06-05T01:34:42.443Z,98560.44
2018-06-05T01:37:12.704Z,98561.25
2018-06-05T01:39:43.142Z,98562.95
2018-06-05T01:42:13.254Z,98566.25
2018-06-05T01:44:43.458Z,98565.98
2018-06-05T01:47:13.694Z,98563.33
2018-06-05T01:49:44.122Z,98567.10
2018-06-05T01:52:14.198Z,98570.47
2018-06-05T01:54:44.685Z,98570.47
2018-06-05T01:57:15.034Z,98569.99
2018-06-05T01:59:45.167Z,98576.02
2018-06-05T02:02:15.497Z,98572.73
2018-06-05T02:04:45.350Z,98575.09
2018-06-05T02:07:15.734Z,98569.06
2018-06-05T02:09:45.902Z,98572.02
2018-06-05T02:12:16.143Z,98573.16
2018-06-05T02:14:47.006Z,98570.35
2018-06-05T02:17:17.346Z,98571.72
2018-06-05T02:19:47.530Z,98570.22
2018-06-05T02:22:17.750Z,98575.77
2018-06-05T02:24:48.383Z,98570.92
2018-06-05T02:27:18.907Z,98571.22
2018-06-05T02:29:49.420Z,98571.59
2018-06-05T02:32:19.462Z,98578.21
2018-06-05T02:34:49.623Z,98572.48
2018-06-05T02:37:19.740Z,98573.59
2018-06-05T02:39:49.899Z,98576.66
2018-06-05T02:42:19.995Z,98578.52
2018-06-05T02:44:50.354Z,98575.84
2018-06-05T02:47:20.574Z,98577.70
2018-06-05T02:49:50.643Z,98581.44
2018-06-05T02:52:20.908Z,98583.18
2018-06-05T02:54:51.138Z,98582.44
2018-06-05T02:57:21.282Z,98586.61
2018-06-05T02:59:51.589Z,98587.98
2018-06-05T03:02:21.831Z,98583.33
2018-06-05T03:04:51.939Z,98577.59
2018-06-05T03:07:22.193Z,98578.89
2018-06-05T03:09:52.365Z,98585.17
2018-06-05T03:12:22.382Z,98586.47
2018-06-05T03:14:52.645Z,98587.16
2018-06-05T03:17:22.826Z,98592.82
2018-06-05T03:19:53.016Z,98584.91
2018-06-05T03:22:23.270Z,98588.02
2018-06-05T03:24:53.554Z,98594.48
2018-06-05T03:27:24.227Z,98584.73
2018-06-05T03:29:54.422Z,98587.98
2018-06-05T03:32:24.680Z,98586.28
2018-06-05T03:34:54.804Z,98585.66
2018-06-05T03:37:25.496Z,98582.55
2018-06-05T03:39:55.748Z,98581.70
2018-06-05T03:42:28.594Z,98584.06
2018-06-05T03:44:58.926Z,98584.80
2018-06-05T03:47:29.292Z,98587.16
2018-06-05T03:50:02.140Z,98590.89
2018-06-05T03:52:32.588Z,98592.89
2018-06-05T03:55:03.586Z,98594.62
2018-06-05T03:57:33.699Z,98595.98
2018-06-05T04:00:04.238Z,98590.19
2018-06-05T04:02:34.835Z,98591.51
2018-06-05T04:05:04.951Z,98592.55
2018-06-05T04:07:35.066Z,98592.36
2018-06-05T04:10:05.414Z,98590.14
2018-06-05T04:12:35.546Z,98593.73
2018-06-05T04:15:06.327Z,98585.14
2018-06-05T04:17:36.480Z,98587.41
2018-06-05T04:20:06.631Z,98593.61
2018-06-05T04:22:36.972Z,98587.69
2018-06-05T04:25:07.482Z,98586.88
2018-06-05T04:27:40.540Z,98591.37
2018-06-05T04:30:10.676Z,98592.26
2018-06-05T04:32:40.778Z,98595.25
2018-06-05T04:35:10.919Z,98607.75
2018-06-05T04:37:41.113Z,98600.20
2018-06-05T04:40:11.268Z,98603.36
2018-06-05T04:42:42.001Z,98597.08
2018-06-05T04:45:12.649Z,98598.70
2018-06-05T04:47:42.850Z,98600.42
2018-06-05T04:50:13.165Z,98598.12
2018-06-05T04:52:43.335Z,98597.56
2018-06-05T04:55:13.502Z,98602.58
2018-06-05T04:57:43.718Z,98602.11
2018-06-05T05:00:13.883Z,98604.16
2018-06-05T05:02:44.259Z,98611.61
2018-06-05T05:05:14.499Z,98613.63
2018-06-05T05:07:44.726Z,98616.48
2018-06-05T05:10:15.009Z,98615.46
2018-06-05T05:12:45.358Z,98616.36
2018-06-05T05:15:15.833Z,98620.02
2018-06-05T05:17:46.138Z,98613.51
2018-06-05T05:20:16.338Z,98620.22
2018-06-05T05:22:46.628Z,98621.20
2018-06-05T05:25:16.897Z,98625.48
2018-06-05T05:27:47.103Z,98629.36
2018-06-05T05:30:17.305Z,98637.66
2018-06-05T05:32:47.755Z,98636.63
2018-06-05T05:35:18.331Z,98634.63
2018-06-05T05:37:48.416Z,98641.56
2018-06-05T05:40:18.621Z,98643.66
2018-06-05T05:42:48.686Z,98648.10
2018-06-05T05:45:18.603Z,98650.30
2018-06-05T05:47:48.675Z,98656.45
2018-06-05T05:50:19.046Z,98663.01
2018-06-05T05:52:49.430Z,98671.09
2018-06-05T05:55:19.856Z,98663.80
2018-06-05T05:57:50.194Z,98670.75
2018-06-05T06:00:20.405Z,98668.63
2018-06-05T06:02:50.583Z,98674.78
2018-06-05T06:05:20.738Z,98670.00
2018-06-05T06:07:50.902Z,98674.28
2018-06-05T06:10:20.990Z,98676.62
2018-06-05T06:12:51.354Z,98669.59
2018-06-05T06:15:21.531Z,98668.28
2018-06-05T06:17:51.962Z,98675.23
2018-06-05T06:20:21.974Z,98674.79
2018-06-05T06:22:52.124Z,98678.44
2018-06-05T06:25:22.520Z,98673.13
2018-06-05T06:27:52.778Z,98676.83
2018-06-05T06:30:23.062Z,98680.29
2018-06-05T06:32:53.774Z,98679.53
2018-06-05T06:35:24.026Z,98685.56
2018-06-05T06:37:54.183Z,98678.77
2018-06-05T06:40:24.491Z,98673.07
2018-06-05T06:42:54.804Z,98681.96
2018-06-05T06:45:25.165Z,98675.27
2018-06-05T06:47:55.320Z,98677.28
2018-06-05T06:50:25.695Z,98674.67
2018-06-05T06:52:55.790Z,98677.11
2018-06-05T06:55:26.365Z,98676.02
2018-06-05T06:57:56.551Z,98675.34
2018-06-05T07:00:27.119Z,98673.30
2018-06-05T07:02:57.523Z,98671.28
2018-06-05T07:05:27.634Z,98666.05
2018-06-05T07:07:57.956Z,98666.28
2018-06-05T07:10:28.215Z,98662.78
2018-06-05T07:12:58.550Z,98669.66
2018-06-05T07:15:29.026Z,98665.75
2018-06-05T07:17:59.391Z,98671.06
2018-06-05T07:20:29.504Z,98667.55
2018-06-05T07:22:59.697Z,98672.41
2018-06-05T07:25:30.073Z,98673.97
2018-06-05T07:28:00.468Z,98675.84
2018-06-05T07:30:30.668Z,98672.33
2018-06-05T07:33:01.082Z,98674.89
2018-06-05T07:35:31.500Z,98674.34
2018-06-05T07:38:01.793Z,98674.46
2018-06-05T07:40:32.102Z,98672.52
2018-06-05T07:43:02.387Z,98673.21
2018-06-05T07:45:32.514Z,98673.25
2018-06-05T07:48:02.887Z,98669.38
2018-06-05T07:50:33.143Z,98669.25
2018-06-05T07:53:03.327Z,98667.88
2018-06-05T07:55:33.349Z,98666.42
2018-06-05T07:58:03.743Z,98671.97
2018-06-05T08:00:34.082Z,98665.20
2018-06-05T08:03:04.411Z,98668.46
2018-06-05T08:05:34.719Z,98664.89
2018-06-05T08:08:04.826Z,98670.29
2018-06-05T08:10:34.987Z,98665.59
2018-06-05T08:13:05.048Z,98670.31
2018-06-05T08:15:35.114Z,98665.02
2018-06-05T08:18:05.289Z,98668.81
2018-06-05T08:20:35.549Z,98669.85
2018-06-05T08:23:06.150Z,98670.90
2018-06-05T08:25:36.418Z,98677.33
2018-06-05T08:28:08.418Z,98676.09
2018-06-05T08:30:38.681Z,98680.33
2018-06-05T08:33:08.587Z,98674.13
2018-06-05T08:35:38.722Z,98675.02
2018-06-05T08:38:09.122Z,98679.55
2018-06-05T08:40:39.338Z,98678.84
2018-06-05T08:43:09.614Z,98684.47
2018-06-05T08:45:40.030Z,98679.40
2018-06-05T08:48:10.141Z,98690.18
2018-06-05T08:50:40.329Z,98682.78
2018-06-05T08:53:10.404Z,98666.00
2018-06-05T08:55:40.677Z,98680.92
2018-06-05T08:58:10.733Z,98678.16
2018-06-05T09:00:40.943Z,98682.37
2018-06-05T09:03:13.739Z,98686.38
2018-06-05T09:05:44.124Z,98684.14
2018-06-05T09:08:14.298Z,98680.19
2018-06-05T09:10:44.306Z,98683.13
2018-06-05T09:13:15.072Z,98682.48
2018-06-05T09:15:45.303Z,98676.89
2018-06-05T09:18:15.517Z,98675.08
2018-06-05T09:20:45.664Z,98681.77
2018-06-05T09:23:15.716Z,98678.69
2018-06-05T09:25:46.131Z,98676.40
2018-06-05T09:28:16.219Z,98683.00
2018-06-05T09:30:46.651Z,98677.22
2018-06-05T09:33:17.174Z,98683.41
2018-06-05T09:35:47.398Z,98676.95
2018-06-05T09:38:17.524Z,98669.93
2018-06-05T09:40:47.394Z,98664.86
2018-06-05T09:43:17.651Z,98671.29
2018-06-05T09:45:48.109Z,98668.52
2018-06-05T09:48:18.098Z,98664.67
2018-06-05T09:50:48.308Z,98664.98
2018-06-05T09:53:18.649Z,98669.64
2018-06-05T09:55:48.684Z,98667.55
2018-06-05T09:58:18.951Z,98663.17
2018-06-05T10:00:52.666Z,98654.51
2018-06-05T10:03:22.649Z,98655.74
2018-06-05T10:05:52.730Z,98651.93
2018-06-05T10:08:22.951Z,98647.24
2018-06-05T10:10:53.185Z,98648.99
2018-06-05T10:13:23.530Z,98642.57
2018-06-05T10:15:54.231Z,98642.06
2018-06-05T10:18:24.452Z,98636.13
2018-06-05T10:20:54.472Z,98626.42
2018-06-05T10:23:24.708Z,98627.52
2018-06-05T10:25:54.648Z,98619.48
2018-06-05T10:28:25.246Z,98621.75
2018-06-05T10:30:55.447Z,98622.22
2018-06-05T10:33:25.789Z,98617.92
2018-06-05T10:35:55.976Z,98620.65
2018-06-05T10:38:26.274Z,98617.73
2018-06-05T10:40:56.490Z,98613.29
2018-06-05T10:43:26.650Z,98614.52
2018-06-05T10:45:56.733Z,98615.21
2018-06-05T10:48:26.706Z,98602.88
2018-06-05T10:50:56.972Z,98599.42
2018-06-05T10:53:27.076Z,98601.58
2018-06-05T10:55:57.286Z,98602.15
2018-06-05T10:58:27.536Z,98600.98
2018-06-05T11:00:58.754Z,98591.56
2018-06-05T11:03:28.896Z,98585.59
2018-06-05T11:05:59.240Z,98584.80
2018-06-05T11:08:29.403Z,98578.74
2018-06-05T11:10:59.535Z,98576.23
2018-06-05T11:13:30.060Z,98575.77
2018-06-05T11:16:00.192Z,98566.19
2018-06-05T11:18:30.362Z,98572.44
2018-06-05T11:21:00.588Z,98569.16
2018-06-05T11:23:31.462Z,98567.79
2018-06-05T11:26:01.694Z,98564.59
2018-06-05T11:28:32.067Z,98564.98
2018-06-05T11:31:02.260Z,98565.89
2018-06-05T11:33:32.349Z,98566.31
2018-06-05T11:36:02.543Z,98566.28
2018-06-05T11:38:32.602Z,98561.70
2018-06-05T11:41:03.202Z,98561.20
2018-06-05T11:43:33.158Z,98564.69
2018-06-05T11:46:03.266Z,98568.96
2018-06-05T11:48:39.924Z,98564.28
2018-06-05T11:51:10.387Z,98568.54
2018-06-05T11:53:40.810Z,98559.74
2018-06-05T11:56:17.795Z,98558.91
2018-06-05T11:58:48.004Z,98560.86
2018-06-05T12:01:18.218Z,98557.88
2018-06-05T12:03:48.592Z,98550.50
2018-06-05T12:06:18.650Z,98549.53
2018-06-05T12:08:48.822Z,98542.69
2018-06-05T12:11:19.197Z,98541.58
2018-06-05T12:13:49.341Z,98540.57
2018-06-05T12:16:20.170Z,98545.31
2018-06-05T12:18:50.397Z,98545.48
2018-06-05T12:21:20.839Z,98546.41
2018-06-05T12:23:51.093Z,98540.78
2018-06-05T12:26:21.443Z,98537.81
2018-06-05T12:28:51.671Z,98542.56
2018-06-05T12:31:21.999Z,98544.38
2018-06-05T12:33:52.215Z,98533.58
2018-06-05T12:36:22.622Z,98528.20
2018-06-05T12:38:52.870Z,98525.73
2018-06-05T12:41:23.157Z,98525.03
2018-06-05T12:43:53.222Z,98523.64
2018-06-05T12:46:23.382Z,98517.69
2018-06-05T12:48:53.573Z,98521.84
2018-06-05T12:51:23.933Z,98516.45
2018-06-05T12:53:54.145Z,98511.48
2018-06-05T12:56:24.489Z,98518.82
2018-06-05T12:58:54.717Z,98521.09
2018-06-05T13:01:25.052Z,98517.86
2018-06-05T13:03:55.496Z,98512.39
2018-06-05T13:06:25.854Z,98506.04
2018-06-05T13:08:56.119Z,98503.09
2018-06-05T13:11:26.534Z,98507.55
2018-06-05T13:13:56.702Z,98502.08
2018-06-05T13:16:27.042Z,98504.77
2018-06-05T13:18:57.159Z,98494.72
2018-06-05T13:21:27.354Z,98489.90
2018-06-05T13:23:57.687Z,98489.19
2018-06-05T13:26:27.882Z,98488.82
2018-06-05T13:28:58.079Z,98491.11
2018-06-05T13:31:28.282Z,98499.14
2018-06-05T13:33:58.405Z,98503.09
2018-06-05T13:36:28.504Z,98507.48
2018-06-05T13:38:58.731Z,98513.69
2018-06-05T13:41:28.877Z,98528.23
2018-06-05T13:43:59.113Z,98525.03
2018-06-05T13:46:29.828Z,98532.13
2018-06-05T13:48:59.975Z,98529.17
2018-06-05T13:51:30.172Z,98537.86
2018-06-05T13:54:00.457Z,98527.73
2018-06-05T13:56:31.024Z,98532.00
2018-06-05T13:59:01.111Z,98526.36
2018-06-05T14:01:31.337Z,98518.77
2018-06-05T14:04:01.588Z,98521.08
2018-06-05T14:06:32.124Z,98517.48
2018-06-05T14:09:02.556Z,98515.09
2018-06-05T14:11:32.541Z,98513.75
2018-06-05T14:14:02.834Z,98513.51
2018-06-05T14:16:32.894Z,98515.30
2018-06-05T14:19:03.268Z,98509.61
2018-06-05T14:21:33.554Z,98514.11
2018-06-05T14:24:03.876Z,98512.32
2018-06-05T14:26:33.851Z,98504.23
2018-06-05T14:29:04.220Z,98501.82
2018-06-05T14:31:34.394Z,98496.05
2018-06-05T14:34:04.659Z,98492.98
2018-06-05T14:36:34.986Z,98489.41
2018-06-05T14:39:11.841Z,98484.22
2018-06-05T14:41:42.167Z,98485.39
2018-06-05T14:44:12.609Z,98491.41
2018-06-05T14:46:42.786Z,98491.41
2018-06-05T14:49:12.937Z,98504.41
2018-06-05T14:51:43.014Z,98503.02
2018-06-05T14:54:13.293Z,98505.67
2018-06-05T14:56:43.539Z,98511.56
2018-06-05T14:59:13.786Z,98515.55
2018-06-05T15:01:43.971Z,98515.48
2018-06-05T15:04:13.987Z,98520.95
2018-06-05T15:06:44.196Z,98529.50
2018-06-05T15:09:14.506Z,98527.73
2018-06-05T15:11:44.566Z,98526.38
2018-06-05T15:14:14.968Z,98527.09
2018-06-05T15:16:45.258Z,98530.08
2018-06-05T15:19:15.422Z,98538.55
2018-06-05T15:21:45.513Z,98534.98
2018-06-05T15:24:15.653Z,98535.28
2018-06-05T15:26:45.881Z,98531.05
2018-06-05T15:29:16.206Z,98536.41
2018-06-05T15:31:46.376Z,98538.52
2018-06-05T15:34:16.439Z,98539.16
2018-06-05T15:36:46.657Z,98529.67
2018-06-05T15:39:16.687Z,98529.64
2018-06-05T15:41:47.095Z,98532.34
2018-06-05T15:44:17.241Z,98526.23
2018-06-05T15:46:47.464Z,98532.75
2018-06-05T15:49:17.550Z,98534.98
2018-06-05T15:51:47.798Z,98523.76
2018-06-05T15:54:17.802Z,98534.47
2018-06-05T15:56:48.231Z,98532.55
2018-06-05T15:59:18.457Z,98538.64
2018-06-05T16:01:48.473Z,98534.80
2018-06-05T16:04:18.886Z,98534.16
2018-06-05T16:06:49.166Z,98532.02
2018-06-05T16:09:19.344Z,98546.13
2018-06-05T16:11:49.582Z,98548.90
2018-06-05T16:14:19.846Z,98549.17
2018-06-05T16:16:49.918Z,98554.02
2018-06-05T16:19:20.078Z,98566.91
2018-06-05T16:21:50.286Z,98560.80
2018-06-05T16:24:20.370Z,98563.88
2018-06-05T16:26:50.696Z,98570.80
2018-06-05T16:29:20.819Z,98567.00
2018-06-05T16:31:51.039Z,98567.11
2018-06-05T16:34:21.154Z,98572.33
2018-06-05T16:36:51.379Z,98582.63
2018-06-05T16:39:21.656Z,98584.65
2018-06-05T16:41:52.962Z,98583.41
2018-06-05T16:44:23.082Z,98586.17
2018-06-05T16:46:53.096Z,98583.34
2018-06-05T16:49:23.226Z,98579.48
2018-06-05T16:51:53.159Z,98587.20
2018-06-05T16:54:23.342Z,98592.87
2018-06-05T16:56:53.535Z,98601.61
2018-06-05T16:59:23.796Z,98601.03
2018-06-05T17:01:54.019Z,98598.08
2018-06-05T17:04:24.270Z,98597.28
2018-06-05T17:06:54.591Z,98596.86
2018-06-05T17:09:24.474Z,98602.66
2018-06-05T17:11:54.666Z,98591.84
2018-06-05T17:14:24.936Z,98590.73
2018-06-05T17:16:55.134Z,98596.39
2018-06-05T17:19:25.280Z,98599.80
2018-06-05T17:21:55.431Z,98606.33
2018-06-05T17:24:25.825Z,98603.33
2018-06-05T17:26:55.951Z,98607.05
2018-06-05T17:29:26.154Z,98606.66
2018-06-05T17:31:56.546Z,98611.64
2018-06-05T17:34:26.606Z,98619.13
2018-06-05T17:36:56.726Z,98620.52
2018-06-05T17:39:26.957Z,98621.28
2018-06-05T17:41:57.150Z,98624.05
2018-06-05T17:44:27.499Z,98624.53
2018-06-05T17:46:57.732Z,98627.73
2018-06-05T17:49:27.785Z,98632.32
2018-06-05T17:51:58.016Z,98633.40
2018-06-05T17:54:28.283Z,98635.36
2018-06-05T17:56:58.730Z,98635.44
2018-06-05T17:59:28.810Z,98642.77
2018-06-05T18:01:58.970Z,98646.70
2018-06-05T18:04:29.090Z,98646.91
2018-06-05T18:06:59.406Z,98643.25
2018-06-05T18:09:29.283Z,98646.52
2018-06-05T18:11:59.763Z,98646.37
2018-06-05T18:14:30.163Z,98644.50
2018-06-05T18:17:00.713Z,98651.41
2018-06-05T18:19:37.413Z,98645.80
2018-06-05T18:22:07.750Z,98653.34
2018-06-05T18:24:37.895Z,98656.13
2018-06-05T18:27:08.339Z,98658.00
2018-06-05T18:29:38.492Z,98657.80
2018-06-05T18:32:09.127Z,98666.86
2018-06-05T18:34:39.315Z,98675.06
2018-06-05T18:37:09.532Z,98678.66
2018-06-05T18:39:40.082Z,98683.65
2018-06-05T18:42:10.313Z,98685.05
2018-06-05T18:44:40.555Z,98693.19
2018-06-05T18:47:10.762Z,98691.00
2018-06-05T18:49:40.955Z,98692.89
2018-06-05T18:52:11.090Z,98695.52
2018-06-05T18:54:41.433Z,98699.94
2018-06-05T18:57:11.518Z,98700.81
2018-06-05T18:59:41.909Z,98700.84
2018-06-05T19:02:12.198Z,98700.88
2018-06-05T19:04:42.484Z,98706.50
2018-06-05T19:07:12.763Z,98711.34
2018-06-05T19:09:43.352Z,98713.66
2018-06-05T19:12:13.717Z,98712.17
2018-06-05T19:14:44.145Z,98714.39
2018-06-05T19:17:14.212Z,98715.76
2018-06-05T19:19:44.597Z,98713.70
2018-06-05T19:22:14.713Z,98718.30
2018-06-05T19:24:44.954Z,98721.52
2018-06-05T19:27:15.348Z,98726.13
2018-06-05T19:29:46.019Z,98724.08
2018-06-05T19:32:17.046Z,98727.41
2018-06-05T19:34:47.364Z,98724.27
2018-06-05T19:37:17.527Z,98730.36
2018-06-05T19:39:48.100Z,98731.05
2018-06-05T19:42:18.431Z,98731.38
2018-06-05T19:44:48.539Z,98733.22
2018-06-05T19:47:18.833Z,98730.34
2018-06-05T19:49:49.162Z,98731.61
2018-06-05T19:52:19.407Z,98731.48
2018-06-05T19:54:49.924Z,98735.19
2018-06-05T19:57:20.155Z,98736.08
2018-06-05T19:59:50.420Z,98739.98
2018-06-05T20:02:20.773Z,98736.09
2018-06-05T20:04:52.079Z,98739.62
2018-06-05T20:07:22.278Z,98740.31
2018-06-05T20:09:52.629Z,98750.91
2018-06-05T20:12:23.008Z,98747.21
2018-06-05T20:14:53.387Z,98753.06
2018-06-05T20:17:23.679Z,98751.92
2018-06-05T20:19:53.819Z,98753.50
2018-06-05T20:22:24.952Z,98754.31
2018-06-05T20:24:55.256Z,98758.89
2018-06-05T20:27:25.386Z,98762.22
2018-06-05T20:29:55.607Z,98764.28
2018-06-05T20:32:26.763Z,98764.70
2018-06-05T20:34:57.226Z,98767.54
2018-06-05T20:37:28.015Z,98771.47
2018-06-05T20:39:58.335Z,98770.28
2018-06-05T20:42:29.156Z,98767.52
2018-06-05T20:44:59.671Z,98770.23
2018-06-05T20:47:30.741Z,98767.22
2018-06-05T20:50:00.975Z,98777.67
2018-06-05T20:52:31.094Z,98773.41
2018-06-05T20:55:01.907Z,98773.73
2018-06-05T20:57:32.406Z,98768.33
2018-06-05T21:00:02.834Z,98777.28
2018-06-05T21:02:33.211Z,98779.09
2018-06-05T21:05:03.561Z,98782.48
2018-06-05T21:07:34.062Z,98784.28
2018-06-05T21:10:04.479Z,98783.83
2018-06-05T21:12:34.867Z,98786.88
2018-06-05T21:15:05.109Z,98784.28
2018-06-05T21:17:35.360Z,98785.77
2018-06-05T21:20:06.797Z,98785.95
2018-06-05T21:22:37.209Z,98788.67
2018-06-05T21:25:07.714Z,98785.22
2018-06-05T21:27:38.215Z,98787.23
2018-06-05T21:30:08.903Z,98790.52
2018-06-05T21:32:39.926Z,98790.94
2018-06-05T21:35:10.194Z,98797.30
2018-06-05T21:37:40.565Z,98801.14
2018-06-05T21:40:10.842Z,98796.97
2018-06-05T21:42:41.075Z,98792.70
2018-06-05T21:45:11.222Z,98794.74
2018-06-05T21:47:41.749Z,98795.97
2018-06-05T21:50:11.967Z,98799.36
2018-06-05T21:52:48.681Z,98801.72
2018-06-05T21:55:21.713Z,98801.22
2018-06-05T21:57:51.824Z,98806.11
2018-06-05T22:00:23.108Z,98806.74
2018-06-05T22:02:53.147Z,98809.28
2018-06-05T22:05:23.422Z,98811.63
2018-06-05T22:07:53.650Z,98807.20
2018-06-05T22:10:23.731Z,98812.30
2018-06-05T22:12:54.062Z,98809.41
2018-06-05T22:15:24.402Z,98808.74
2018-06-05T22:17:54.613Z,98807.88
2018-06-05T22:20:24.841Z,98811.44
2018-06-05T22:22:54.910Z,98819.19
2018-06-05T22:25:25.180Z,98818.47
2018-06-05T22:27:55.193Z,98821.31
2018-06-05T22:30:25.620Z,98821.63
2018-06-05T22:32:55.738Z,98821.07
2018-06-05T22:35:25.910Z,98823.91
2018-06-05T22:37:55.974Z,98831.09
2018-06-05T22:40:26.209Z,98829.88
2018-06-05T22:42:56.538Z,98841.53
2018-06-05T22:45:26.675Z,98844.03
2018-06-05T22:47:56.774Z,98840.25
2018-06-05T22:50:26.936Z,98838.16
2018-06-05T22:52:57.391Z,98842.13
2018-06-05T22:55:27.584Z,98840.00
2018-06-05T22:57:57.911Z,98841.71
2018-06-05T23:00:32.996Z,98847.21
2018-06-05T23:03:03.094Z,98842.53
2018-06-05T23:05:33.378Z,98839.62
2018-06-05T23:08:03.431Z,98841.87
2018-06-05T23:10:33.575Z,98840.86
2018-06-05T23:13:03.679Z,98838.67
2018-06-05T23:15:33.923Z,98845.13
2018-06-05T23:18:04.143Z,98838.70
2018-06-05T23:20:34.368Z,98839.01
2018-06-05T23:23:04.579Z,98837.47
2018-06-05T23:25:34.645Z,98841.68
2018-06-05T23:28:04.671Z,98835.13
2018-06-05T23:30:36.778Z,98840.37
2018-06-05T23:33:06.971Z,98811.36
2018-06-05T23:35:37.341Z,98840.55
2018-06-05T23:38:07.479Z,98844.16
2018-06-05T23:40:37.670Z,98849.41
2018-06-05T23:43:08.961Z,98854.73
2018-06-05T23:45:39.040Z,98843.52
2018-06-05T23:48:09.328Z,98849.58
2018-06-05T23:50:39.398Z,98848.20
2018-06-05T23:53:09.643Z,98851.17
2018-06-05T23:55:40.794Z,98849.63
2018-06-05T23:58:11.288Z,98851.98
